Pagrindinis puslapis
METAR-TAF:

METAR-TAF

Oro uostai :

Sofija, Bulgarija

platuma: 42-39N, ilguma: 023-23E, Aukštis: 586 m

Dabartinis oras

Ataskaita buvo paskelbta 16 minutes, ne 22:00 UTC
Vėjas 4 kt iš Vakarų/Šiaurės Vakarų
Temperatūra 8°C
Drėgmė 66%
Slėgis 1026 hPa
Matomumas 10 km arba daugiau
nėra debesų žemiau 1500 m ir nėra kamuolinių lietaus debesų

METAR: LBSF 202200Z 29004KT CAVOK 08/02 Q1026 NOSIG

Laikas: 01:16 (22:16 UTC)

Prognozė

Ataskaita buvo paskelbta 5 valandos ir 16 minutes, ne 17:00 UTC
Prognozė galioja nuo 20 metu 18 UTC su 21 metu 18 UTC
Vėjas 10 kt iš Šiaurės/Šiaurės Rytų
Matomumas 10 km arba daugiau
nėra debesų žemiau 1500 m ir nėra kamuolinių lietaus debesų
Tapsmas
nuo 20 metu 18 UTC su 20 metu 20 UTC
Vėjas 4 kt nuo kintamojo kryptimis
Tapsmas
nuo 21 metu 10 UTC su 21 metu 12 UTC
Vėjas 10 kt iš Rytų

TAF: LBSF 201700Z 2018/2118 02010KT CAVOK BECMG 2018/2020 VRB04KT BECMG 2110/2112 08010KT

Orai ataskaitas ir orų prognozės (METAR, TAF).

turimą stotys yra geltonos ir raudonos taškus žemėlapyje.

Perkelti pele per norėdami pamatyti stoties vardą.

Tada spustelėkite, norėdami matyti oro stebėjimo ir prognozės.

Norėdami pakeisti žemėlapį: spustelėkite ant žalios mygtukų su juodo kryžiaus žemyn,; žalią mygtuką su brūkšneliu, jei norite nutolinti; arba žalių rodyklių gretimoms žemėlapius.


METAR-TAF: